Time;durP1;ratioP1;P1;durP2;ratioP2;P2;SDS_P1;SDS_P2;PMS_P1;PMS_P2;Temp;Humidity;BMP_temperature;BMP_pressure;BME280_temperature;BME280_humidity;BME280_pressure;Samples;Min_cycle;Max_cycle;Signal;HPM_P1;HPM_P2
2023/04/30 00:00:11;;;;;;;1999.90;999.90;;;9.70;99.90;;;;;;5035389;28;20422;-77
2023/04/30 00:02:37;;;;;;;1999.90;999.90;;;9.80;99.90;;;;;;5035063;28;20423;-77
2023/04/30 00:05:03;;;;;;;1999.90;999.90;;;9.80;99.90;;;;;;5035253;28;20426;-77
2023/04/30 00:07:29;;;;;;;1999.90;999.90;;;9.90;99.90;;;;;;5035152;28;20425;-77
2023/04/30 00:09:55;;;;;;;1999.90;999.90;;;9.90;99.90;;;;;;5035277;28;20406;-77
2023/04/30 00:12:20;;;;;;;1999.90;999.90;;;9.80;99.90;;;;;;5034993;28;20859;-77
2023/04/30 00:14:46;;;;;;;1999.90;999.90;;;9.70;99.90;;;;;;5035112;28;20646;-77
2023/04/30 00:17:12;;;;;;;1999.90;999.90;;;9.80;99.90;;;;;;5035178;28;20175;-77
2023/04/30 00:19:37;;;;;;;1999.90;999.90;;;10.00;99.90;;;;;;5035015;28;20176;-77
2023/04/30 00:22:04;;;;;;;1999.90;999.90;;;9.70;99.90;;;;;;5034778;28;20177;-77
2023/04/30 00:24:29;;;;;;;1999.90;999.90;;;9.80;99.90;;;;;;5034849;28;20203;-77
2023/04/30 00:26:55;;;;;;;1999.90;999.90;;;9.70;99.90;;;;;;5034978;28;20406;-77
2023/04/30 00:29:21;;;;;;;1999.90;999.90;;;9.70;99.90;;;;;;5034798;28;20199;-76
2023/04/30 00:31:46;;;;;;;1999.90;999.90;;;9.90;99.90;;;;;;5034607;28;20179;-76
2023/04/30 00:34:12;;;;;;;1999.90;999.90;;;9.70;99.90;;;;;;5034760;28;20283;-77
2023/04/30 00:36:39;;;;;;;1999.90;999.90;;;9.60;99.90;;;;;;5034755;28;20192;-77
2023/04/30 00:39:05;;;;;;;1999.90;999.90;;;9.60;99.90;;;;;;5041807;28;20259;-77
2023/04/30 00:41:31;;;;;;;1999.90;999.90;;;9.60;99.90;;;;;;5041292;28;20470;-77
2023/04/30 00:43:57;;;;;;;1999.90;999.90;;;9.80;99.90;;;;;;5060126;28;20437;-77
2023/04/30 00:46:23;;;;;;;1999.90;999.90;;;10.00;99.90;;;;;;5061496;28;20464;-77
2023/04/30 00:48:49;;;;;;;1999.90;999.90;;;9.60;99.90;;;;;;5061335;28;20209;-77
2023/04/30 00:51:15;;;;;;;1999.90;999.90;;;9.70;99.90;;;;;;5061934;28;20183;-77
2023/04/30 00:53:42;;;;;;;1999.90;999.90;;;9.70;99.90;;;;;;5061336;28;20446;-78
2023/04/30 00:56:09;;;;;;;1999.90;999.90;;;9.50;99.90;;;;;;5060514;28;20406;-78
2023/04/30 00:58:35;;;;;;;1999.90;999.90;;;9.50;99.90;;;;;;5060878;28;21143;-77
2023/04/30 01:01:02;;;;;;;1999.90;999.90;;;9.90;99.90;;;;;;5061069;28;20418;-77
2023/04/30 01:03:28;;;;;;;1999.90;999.90;;;9.50;99.90;;;;;;5061368;28;20463;-78
2023/04/30 01:05:53;;;;;;;1999.90;999.90;;;9.40;99.90;;;;;;5061568;28;20413;-77
2023/04/30 01:08:19;;;;;;;1999.90;999.90;;;9.60;99.90;;;;;;5061139;28;20198;-77
2023/04/30 01:10:54;;;;;;;1999.90;999.90;;;9.50;99.90;;;;;;5061742;28;20231;-77
2023/04/30 01:13:33;;;;;;;1999.90;999.90;;;9.40;99.90;;;;;;5061609;28;20942;-77
2023/04/30 01:16:26;;;;;;;1999.90;999.90;;;9.40;99.90;;;;;;5061388;28;20409;-77
2023/04/30 01:19:04;;;;;;;1999.90;999.90;;;9.30;99.90;;;;;;5058493;28;20444;-77
2023/04/30 01:21:32;;;;;;;1999.90;999.90;;;9.30;99.90;;;;;;5061648;28;21005;-77
2023/04/30 01:24:28;;;;;;;1999.90;999.90;;;9.30;99.90;;;;;;5062157;28;20456;-77
2023/04/30 01:27:23;;;;;;;1999.90;999.90;;;9.30;99.90;;;;;;5062654;28;20442;-77
2023/04/30 01:30:24;;;;;;;1999.90;999.90;;;8.90;99.90;;;;;;5066041;28;20472;-77
2023/04/30 01:40:50;;;;;;;1999.90;999.90;;;9.00;99.90;;;;;;5072210;28;20976;-77
2023/04/30 01:44:26;;;;;;;1999.90;999.90;;;10.70;99.90;;;;;;5030895;28;20423;-77
2023/04/30 01:47:28;;;;;;;1999.90;999.90;;;9.00;99.90;;;;;;4998192;28;20431;-77
2023/04/30 01:50:41;;;;;;;1999.90;999.90;;;8.80;99.90;;;;;;5030392;28;20449;-77
2023/04/30 01:57:35;;;;;;;1999.90;999.90;;;8.80;99.90;;;;;;4971235;29;20445;-77
2023/04/30 02:04:28;;;;;;;1999.90;999.90;;;8.90;99.90;;;;;;4841111;29;20455;-77
2023/04/30 02:07:56;;;;;;;1999.90;999.90;;;8.70;99.90;;;;;;4848690;29;20438;-77
2023/04/30 02:11:23;;;;;;;1999.90;999.90;;;8.90;99.90;;;;;;4804513;29;20430;-77
2023/04/30 02:21:22;;;;;;;1999.90;999.90;;;8.50;99.90;;;;;;4897157;29;20428;-76
2023/04/30 02:24:28;;;;;;;1999.90;999.90;;;7.60;99.90;;;;;;4914932;29;20465;-76
2023/04/30 02:27:14;;;;;;;1999.90;999.90;;;8.70;99.90;;;;;;4862763;29;20417;-77
2023/04/30 02:29:39;;;;;;;1999.90;999.90;;;9.20;99.90;;;;;;4978970;28;20955;-77
2023/04/30 02:32:05;;;;;;;1999.90;999.90;;;8.40;99.90;;;;;;5059389;28;20655;-77
2023/04/30 02:34:31;;;;;;;1999.90;999.90;;;;;;;;;;5059649;28;20187;-76
2023/04/30 02:36:56;;;;;;;1999.90;999.90;;;8.40;99.90;;;;;;5059691;28;20171;-76
2023/04/30 02:39:22;;;;;;;1999.90;999.90;;;8.30;99.90;;;;;;5060024;28;20952;-77
2023/04/30 02:41:47;;;;;;;1999.90;999.90;;;8.30;99.90;;;;;;5058560;28;20578;-77
2023/04/30 02:44:13;;;;;;;1999.90;999.90;;;8.30;99.90;;;;;;5057429;28;20225;-76
2023/04/30 02:46:39;;;;;;;1999.90;999.90;;;8.30;99.90;;;;;;5052337;28;20174;-76
2023/04/30 02:49:05;;;;;;;1999.90;999.90;;;8.80;99.90;;;;;;5052288;28;20191;-76
2023/04/30 02:51:31;;;;;;;1999.90;999.90;;;8.30;99.90;;;;;;5051985;28;20166;-77
2023/04/30 02:53:57;;;;;;;1999.90;999.90;;;8.30;99.90;;;;;;5052129;28;20950;-76
2023/04/30 02:56:23;;;;;;;1999.90;999.90;;;8.20;99.90;;;;;;5052148;28;20409;-76
2023/04/30 02:58:48;;;;;;;1999.90;999.90;;;8.70;99.90;;;;;;5052086;28;20177;-77
2023/04/30 03:01:14;;;;;;;1999.90;999.90;;;8.30;99.90;;;;;;5051835;28;20167;-77
2023/04/30 03:03:40;;;;;;;1999.90;999.90;;;8.30;99.90;;;;;;5051950;28;20197;-76
2023/04/30 03:06:05;;;;;;;1999.90;999.90;;;8.10;99.90;;;;;;5051996;28;20560;-76
2023/04/30 03:08:31;;;;;;;1999.90;999.90;;;8.10;99.90;;;;;;5051846;28;20235;-77
2023/04/30 03:10:56;;;;;;;1999.90;999.90;;;8.00;99.90;;;;;;5051517;28;20197;-77
2023/04/30 03:13:24;;;;;;;1999.90;999.90;;;8.60;99.90;;;;;;5051850;28;20672;-77
2023/04/30 03:15:59;;;;;;;1999.90;999.90;;;8.80;99.90;;;;;;5051974;28;20163;-77
2023/04/30 03:18:25;;;;;;;1999.90;999.90;;;8.10;99.90;;;;;;5051959;28;20435;-77
2023/04/30 03:20:51;;;;;;;1999.90;999.90;;;8.00;99.90;;;;;;5051704;28;20824;-76
2023/04/30 03:23:16;;;;;;;1999.90;999.90;;;8.00;99.90;;;;;;5051638;28;20480;-76
2023/04/30 03:25:42;;;;;;;1999.90;999.90;;;8.30;99.90;;;;;;5051845;28;20257;-77
2023/04/30 03:28:07;;;;;;;1999.90;999.90;;;8.50;99.90;;;;;;5051709;28;20194;-77
2023/04/30 03:30:33;;;;;;;1999.90;999.90;;;8.00;99.90;;;;;;5051748;28;20710;-76
2023/04/30 03:32:59;;;;;;;1999.90;999.90;;;8.20;99.90;;;;;;5051397;28;20190;-77
2023/04/30 03:35:24;;;;;;;1999.90;999.90;;;8.00;99.90;;;;;;5051769;28;20196;-76
2023/04/30 03:37:50;;;;;;;1999.90;999.90;;;8.00;99.90;;;;;;5051683;28;20170;-76
2023/04/30 03:40:15;;;;;;;1999.90;999.90;;;7.90;99.90;;;;;;5051688;28;20172;-76
2023/04/30 03:42:41;;;;;;;1999.90;999.90;;;7.70;99.90;;;;;;5051431;28;20554;-76
2023/04/30 03:45:07;;;;;;;1999.90;999.90;;;7.70;99.90;;;;;;5051598;28;20237;-76
2023/04/30 03:47:35;;;;;;;1999.90;999.90;;;7.60;99.90;;;;;;5051514;28;20181;-76
2023/04/30 03:50:02;;;;;;;1999.90;999.90;;;7.70;99.90;;;;;;5051574;28;20440;-76
2023/04/30 03:52:28;;;;;;;1999.90;999.90;;;7.60;99.90;;;;;;5051307;28;20415;-76
2023/04/30 03:54:54;;;;;;;1999.90;999.90;;;7.60;99.90;;;;;;5051451;28;20807;-76
2023/04/30 03:57:20;;;;;;;1999.90;999.90;;;7.60;99.90;;;;;;5051611;28;20407;-76
2023/04/30 03:59:45;;;;;;;1999.90;999.90;;;7.80;99.90;;;;;;5051441;28;20199;-77
2023/04/30 04:02:11;;;;;;;1999.90;999.90;;;7.60;99.90;;;;;;5051237;28;20416;-76
2023/04/30 04:04:37;;;;;;;1999.90;999.90;;;7.60;99.90;;;;;;5051502;28;20196;-76
2023/04/30 04:07:02;;;;;;;1999.90;999.90;;;7.60;99.90;;;;;;5051399;28;20266;-76
2023/04/30 04:09:28;;;;;;;1999.90;999.90;;;7.70;99.90;;;;;;5051428;28;20205;-76
2023/04/30 04:11:54;;;;;;;1999.90;999.90;;;7.60;99.90;;;;;;5051139;28;20170;-76
2023/04/30 04:14:20;;;;;;;1999.90;999.90;;;7.50;99.90;;;;;;5051277;28;20422;-76
2023/04/30 04:16:45;;;;;;;1999.90;999.90;;;7.50;99.90;;;;;;5051408;28;20246;-76
2023/04/30 04:19:12;;;;;;;1999.90;999.90;;;7.30;99.90;;;;;;5051444;28;20174;-76
2023/04/30 04:21:38;;;;;;;1999.90;999.90;;;7.20;99.90;;;;;;5052156;28;20165;-76
2023/04/30 04:24:07;;;;;;;1999.90;999.90;;;7.10;99.90;;;;;;5054878;28;20502;-76
2023/04/30 04:26:36;;;;;;;1999.90;999.90;;;7.00;99.90;;;;;;5055018;28;20164;-76
2023/04/30 04:29:03;;;;;;;1999.90;999.90;;;7.00;99.90;;;;;;5054827;28;20876;-76
2023/04/30 04:31:30;;;;;;;1999.90;999.90;;;6.90;99.90;;;;;;5054762;28;20408;-76
2023/04/30 04:33:59;;;;;;;1999.90;999.90;;;6.90;99.90;;;;;;5054815;28;20434;-76
2023/04/30 04:36:29;;;;;;;1999.90;999.90;;;7.00;99.90;;;;;;5054871;28;20895;-76
2023/04/30 04:38:56;;;;;;;1999.90;999.90;;;7.00;99.90;;;;;;5054840;28;20404;-76
2023/04/30 04:41:23;;;;;;;1999.90;999.90;;;7.10;99.90;;;;;;5054734;28;20979;-77
2023/04/30 04:43:49;;;;;;;1999.90;999.90;;;7.20;99.90;;;;;;5054683;28;20934;-76
2023/04/30 04:46:15;;;;;;;1999.90;999.90;;;7.30;99.90;;;;;;5054777;28;20467;-76
2023/04/30 04:48:41;;;;;;;1999.90;999.90;;;7.40;99.90;;;;;;5054678;28;20451;-77
2023/04/30 04:51:08;;;;;;;1999.90;999.90;;;7.50;99.90;;;;;;5054456;28;20399;-76
2023/04/30 04:53:33;;;;;;;1999.90;999.90;;;7.50;99.90;;;;;;5054479;28;20766;-76
2023/04/30 04:55:59;;;;;;;1999.90;999.90;;;7.60;99.90;;;;;;5054424;28;20414;-76
2023/04/30 04:58:25;;;;;;;1999.90;999.90;;;7.60;99.90;;;;;;5054386;28;20196;-77
2023/04/30 05:00:51;;;;;;;1999.90;999.90;;;7.60;99.90;;;;;;5054168;28;20166;-76
2023/04/30 05:03:19;;;;;;;1999.90;999.90;;;7.70;99.90;;;;;;5054133;28;20428;-76
2023/04/30 05:05:45;;;;;;;1999.90;999.90;;;8.00;99.90;;;;;;5054237;28;20408;-76
2023/04/30 05:08:11;;;;;;;1999.90;999.90;;;8.00;99.90;;;;;;5054213;28;20540;-76
2023/04/30 05:10:36;;;;;;;1999.90;999.90;;;7.90;99.90;;;;;;5054236;28;20459;-77
2023/04/30 05:13:02;;;;;;;1999.90;999.90;;;7.90;99.90;;;;;;5054068;28;20196;-76
2023/04/30 05:15:28;;;;;;;1999.90;999.90;;;8.20;99.90;;;;;;5057145;28;20246;-76
2023/04/30 05:17:53;;;;;;;1999.90;999.90;;;8.00;99.90;;;;;;5054304;28;20164;-76
2023/04/30 05:20:57;;;;;;;1999.90;999.90;;;8.10;99.90;;;;;;5061833;28;20189;-77
2023/04/30 05:23:43;;;;;;;1999.90;999.90;;;7.90;99.90;;;;;;5039065;28;20194;-77
2023/04/30 05:26:09;;;;;;;1999.90;999.90;;;8.30;99.90;;;;;;5061766;28;20404;-77
2023/04/30 05:28:35;;;;;;;1999.90;999.90;;;8.40;99.90;;;;;;5061450;28;20455;-76
2023/04/30 05:31:00;;;;;;;1999.90;999.90;;;8.40;99.90;;;;;;5061118;28;20236;-77
2023/04/30 05:33:26;;;;;;;1999.90;999.90;;;8.30;99.90;;;;;;5061358;28;20198;-77
2023/04/30 05:35:52;;;;;;;1999.90;999.90;;;8.60;99.90;;;;;;5062625;28;20178;-77
2023/04/30 05:38:17;;;;;;;1999.90;999.90;;;8.60;99.90;;;;;;5059136;28;20467;-77
2023/04/30 05:40:43;;;;;;;1999.90;999.90;;;8.70;99.90;;;;;;5062439;28;20184;-76
2023/04/30 05:43:08;;;;;;;1999.90;999.90;;;8.80;99.90;;;;;;5062050;28;20216;-77
2023/04/30 05:45:34;;;;;;;1999.90;999.90;;;9.00;99.90;;;;;;5061873;28;20203;-77
2023/04/30 05:48:00;;;;;;;1999.90;999.90;;;8.80;99.90;;;;;;5058205;28;20226;-77
2023/04/30 05:50:26;;;;;;;1999.90;999.90;;;9.00;99.90;;;;;;5061003;28;20280;-77
2023/04/30 05:52:51;;;;;;;1999.90;999.90;;;8.90;99.90;;;;;;5061418;28;20443;-77
2023/04/30 05:55:17;;;;;;;1999.90;999.90;;;9.50;99.90;;;;;;5061729;28;20163;-78
2023/04/30 05:57:43;;;;;;;1999.90;999.90;;;9.20;99.90;;;;;;5060522;28;20230;-77
2023/04/30 06:00:09;;;;;;;1999.90;999.90;;;9.20;99.90;;;;;;5042279;28;20515;-77
2023/04/30 06:02:34;;;;;;;1999.90;999.90;;;9.30;99.90;;;;;;5059309;28;20170;-77
2023/04/30 06:05:01;;;;;;;1999.90;999.90;;;9.10;99.90;;;;;;5059917;28;20992;-77
2023/04/30 06:07:27;;;;;;;1999.90;999.90;;;9.60;99.90;;;;;;5059471;28;20196;-77
2023/04/30 06:17:03;;;;;;;1999.90;999.90;;;9.80;99.90;;;;;;5073467;28;20418;-77
2023/04/30 06:19:30;;;;;;;1999.90;999.90;;;9.80;99.90;;;;;;5026087;28;20467;-77
2023/04/30 06:21:56;;;;;;;1999.90;999.90;;;10.30;99.90;;;;;;5052587;28;20410;-77
2023/04/30 06:24:21;;;;;;;1999.90;999.90;;;10.20;99.90;;;;;;5052692;28;20191;-77
2023/04/30 06:26:47;;;;;;;1999.90;999.90;;;10.00;99.90;;;;;;5052792;28;20564;-76
2023/04/30 06:29:13;;;;;;;1999.90;999.90;;;10.00;99.90;;;;;;5052624;28;20743;-77
2023/04/30 06:31:39;;;;;;;1999.90;999.90;;;10.10;99.90;;;;;;5052337;28;20440;-76
2023/04/30 06:34:05;;;;;;;1999.90;999.90;;;10.10;99.90;;;;;;5052406;28;20657;-77
2023/04/30 06:36:30;;;;;;;1999.90;999.90;;;10.10;99.90;;;;;;5052536;28;20164;-77
2023/04/30 06:38:56;;;;;;;1999.90;999.90;;;10.20;99.90;;;;;;5052552;28;20687;-76
2023/04/30 06:41:21;;;;;;;1999.90;999.90;;;10.20;99.90;;;;;;5052326;28;20172;-76
2023/04/30 06:43:47;;;;;;;1999.90;999.90;;;10.20;99.90;;;;;;5052118;28;20535;-77
2023/04/30 06:46:13;;;;;;;1999.90;999.90;;;10.30;99.90;;;;;;5052488;28;20225;-77
2023/04/30 06:48:39;;;;;;;1999.90;999.90;;;10.40;99.90;;;;;;5052598;28;20203;-77
2023/04/30 06:51:05;;;;;;;1999.90;999.90;;;10.50;99.90;;;;;;5052121;28;20403;-76
2023/04/30 06:53:30;;;;;;;1999.90;999.90;;;10.60;99.90;;;;;;5052253;28;20244;-77
2023/04/30 06:55:56;;;;;;;1999.90;999.90;;;10.70;99.90;;;;;;5052292;28;20164;-77
2023/04/30 06:58:21;;;;;;;1999.90;999.90;;;10.80;99.90;;;;;;5052164;28;20258;-77
2023/04/30 07:00:47;;;;;;;1999.90;999.90;;;10.90;99.90;;;;;;5052124;28;20171;-77
2023/04/30 07:03:13;;;;;;;1999.90;999.90;;;11.00;99.90;;;;;;5051711;28;20684;-77
2023/04/30 07:05:39;;;;;;;1999.90;999.90;;;10.90;99.90;;;;;;5052123;28;20178;-77
2023/04/30 07:08:05;;;;;;;1999.90;999.90;;;10.90;99.90;;;;;;5051815;28;21133;-77
2023/04/30 07:10:31;;;;;;;1999.90;999.90;;;11.00;99.90;;;;;;5051946;28;20251;-77
2023/04/30 07:12:58;;;;;;;1999.90;999.90;;;11.30;99.90;;;;;;5051602;28;20502;-77
2023/04/30 07:15:23;;;;;;;1999.90;999.90;;;11.10;99.90;;;;;;5051821;28;20160;-77
2023/04/30 07:17:49;;;;;;;1999.90;999.90;;;11.30;99.90;;;;;;5051911;28;20412;-77
2023/04/30 07:20:15;;;;;;;1999.90;999.90;;;11.50;99.90;;;;;;5051846;28;20203;-76
2023/04/30 07:22:43;;;;;;;1999.90;999.90;;;11.50;99.90;;;;;;5054737;28;20167;-77
2023/04/30 07:25:09;;;;;;;1999.90;999.90;;;11.60;99.90;;;;;;5057641;28;20160;-77
2023/04/30 07:27:35;;;;;;;1999.90;999.90;;;11.70;99.90;;;;;;5056311;28;20478;-77
2023/04/30 07:30:01;;;;;;;1999.90;999.90;;;11.80;99.90;;;;;;5056645;28;20490;-77
2023/04/30 07:32:26;;;;;;;1999.90;999.90;;;11.90;99.90;;;;;;5055313;28;20168;-77
2023/04/30 07:34:52;;;;;;;1999.90;999.90;;;11.90;99.90;;;;;;5054441;28;20226;-77
2023/04/30 07:37:18;;;;;;;1999.90;999.90;;;12.00;99.90;;;;;;5054681;28;20170;-78
2023/04/30 07:39:44;;;;;;;1999.90;999.90;;;12.00;99.90;;;;;;5055174;28;20905;-78
2023/04/30 07:42:10;;;;;;;1999.90;999.90;;;12.00;99.90;;;;;;5054732;28;20407;-78
2023/04/30 07:44:35;;;;;;;1999.90;999.90;;;12.00;99.90;;;;;;5053759;28;20226;-77
2023/04/30 07:47:01;;;;;;;1999.90;999.90;;;12.10;99.90;;;;;;5054610;28;20210;-77
2023/04/30 07:49:27;;;;;;;1999.90;999.90;;;12.10;99.90;;;;;;5055079;28;20200;-77
2023/04/30 07:51:53;;;;;;;1999.90;999.90;;;12.20;99.90;;;;;;5054597;28;20174;-77
2023/04/30 07:54:18;;;;;;;1999.90;999.90;;;12.20;99.90;;;;;;5055229;28;20430;-77
2023/04/30 07:56:44;;;;;;;1999.90;999.90;;;12.30;99.90;;;;;;5056238;28;20251;-77
2023/04/30 07:59:10;;;;;;;1999.90;999.90;;;12.40;99.90;;;;;;5058699;28;20261;-77
2023/04/30 08:01:35;;;;;;;1999.90;999.90;;;12.60;99.90;;;;;;5059117;28;20177;-77
2023/04/30 08:04:01;;;;;;;1999.90;999.90;;;12.70;99.90;;;;;;5059044;28;20693;-77
2023/04/30 08:06:27;;;;;;;1999.90;999.90;;;12.90;99.90;;;;;;5059931;28;20181;-77
2023/04/30 08:08:53;;;;;;;1999.90;999.90;;;13.00;99.90;;;;;;5055687;28;20212;-77
2023/04/30 08:15:31;;;;;;;1999.90;999.90;;;13.20;99.90;;;;;;5069391;28;20195;-77
2023/04/30 08:17:57;;;;;;;1999.90;999.90;;;;;;;;;;5056627;28;20411;-77
2023/04/30 08:20:23;;;;;;;1999.90;999.90;;;13.40;99.90;;;;;;5055341;28;20395;-77
2023/04/30 08:22:49;;;;;;;1999.90;999.90;;;13.40;99.90;;;;;;5054985;28;20454;-77
2023/04/30 08:25:14;;;;;;;1999.90;999.90;;;13.50;99.90;;;;;;5055890;28;20549;-77
2023/04/30 08:27:40;;;;;;;1999.90;999.90;;;13.60;99.90;;;;;;5060028;28;20179;-78
2023/04/30 08:30:06;;;;;;;1999.90;999.90;;;13.60;99.90;;;;;;5040104;28;20628;-77
2023/04/30 08:32:36;;;;;;;1999.90;999.90;;;13.60;99.90;;;;;;5050339;28;20260;-77
2023/04/30 08:35:05;;;;;;;1999.90;999.90;;;13.60;99.90;;;;;;5043963;28;20422;-77
2023/04/30 08:37:31;;;;;;;1999.90;999.90;;;13.60;99.90;;;;;;5043091;28;20490;-77
2023/04/30 08:39:57;;;;;;;1999.90;999.90;;;13.80;99.90;;;;;;5045814;28;20558;-77
2023/04/30 08:42:26;;;;;;;1999.90;999.90;;;13.90;99.90;;;;;;5043606;28;20186;-76
2023/04/30 08:44:51;;;;;;;1999.90;999.90;;;14.10;99.90;;;;;;5042048;28;20435;-77
2023/04/30 08:47:20;;;;;;;1999.90;999.90;;;14.30;99.90;;;;;;5044495;28;20418;-77
2023/04/30 08:49:46;;;;;;;1999.90;999.90;;;14.50;99.90;;;;;;5043777;28;20211;-77
2023/04/30 08:52:12;;;;;;;1999.90;999.90;;;14.60;99.90;;;;;;5043193;28;20908;-77
2023/04/30 08:54:37;;;;;;;1999.90;999.90;;;14.80;99.90;;;;;;5045794;28;20426;-77
2023/04/30 08:57:04;;;;;;;1999.90;999.90;;;14.80;99.90;;;;;;5044459;28;20196;-78
2023/04/30 08:59:30;;;;;;;1999.90;999.90;;;14.80;99.90;;;;;;5037639;28;20189;-77
2023/04/30 09:01:55;;;;;;;1999.90;999.90;;;14.90;99.90;;;;;;5035567;28;20502;-78
2023/04/30 09:04:21;;;;;;;1999.90;999.90;;;15.00;99.90;;;;;;5036923;28;20442;-77
2023/04/30 09:06:47;;;;;;;1999.90;999.90;;;15.10;99.90;;;;;;5037085;28;20176;-77
2023/04/30 09:09:14;;;;;;;1999.90;999.90;;;15.10;99.90;;;;;;5035404;28;20211;-77
2023/04/30 09:11:40;;;;;;;1999.90;999.90;;;15.00;99.90;;;;;;5036673;28;20639;-78
2023/04/30 09:14:06;;;;;;;1999.90;999.90;;;15.10;99.90;;;;;;5040093;28;20625;-78
2023/04/30 09:16:49;;;;;;;1999.90;999.90;;;15.10;99.90;;;;;;5037248;28;20415;-79
2023/04/30 09:19:25;;;;;;;1999.90;999.90;;;15.10;99.90;;;;;;5035850;28;20422;-78
2023/04/30 09:35:52;;;;;;;1999.90;999.90;;;15.60;99.90;;;;;;4959041;28;20427;-79
2023/04/30 09:38:28;;;;;;;1999.90;999.90;;;15.80;99.90;;;;;;4993885;28;21076;-72
2023/04/30 09:40:54;;;;;;;1999.90;999.90;;;16.10;99.90;;;;;;4991808;28;20450;-76
2023/04/30 09:43:19;;;;;;;1999.90;999.90;;;16.30;99.90;;;;;;4996531;28;20437;-76
2023/04/30 09:45:48;;;;;;;1999.90;999.90;;;16.50;99.90;;;;;;5056628;28;20402;-72
2023/04/30 09:48:32;;;;;;;1999.90;999.90;;;16.70;99.90;;;;;;5033406;28;20197;-76
2023/04/30 09:51:02;;;;;;;1999.90;999.90;;;16.80;99.90;;;;;;5032625;28;20407;-74
2023/04/30 09:54:23;;;;;;;1999.90;999.90;;;17.00;99.90;;;;;;5033791;28;20501;-78
2023/04/30 09:57:59;;;;;;;1999.90;999.90;;;17.10;99.90;;;;;;4921461;29;20410;-78
2023/04/30 10:01:21;;;;;;;1999.90;999.90;;;17.30;99.90;;;;;;4925118;29;20419;-77
2023/04/30 10:05:10;;;;;;;1999.90;999.90;;;17.20;99.90;;;;;;4877698;29;20464;-77
2023/04/30 10:08:29;;;;;;;1999.90;999.90;;;16.50;99.90;;;;;;4805529;30;20424;-77
2023/04/30 10:18:37;;;;;;;1999.90;999.90;;;17.80;99.90;;;;;;4750709;30;20453;-78
2023/04/30 10:25:37;;;;;;;1999.90;999.90;;;17.90;99.90;;;;;;4644234;30;20450;-78
2023/04/30 10:28:22;;;;;;;1999.90;999.90;;;18.40;99.90;;;;;;4662547;30;20503;-78
2023/04/30 10:31:00;;;;;;;1999.90;999.90;;;18.50;99.90;;;;;;4740336;30;20439;-78
2023/04/30 10:33:38;;;;;;;1999.90;999.90;;;18.50;94.40;;;;;;4974191;28;20981;-78
2023/04/30 10:36:23;;;;;;;1999.90;999.90;;;18.40;95.30;;;;;;5028808;28;20438;-78
2023/04/30 10:38:56;;;;;;;1999.90;999.90;;;19.00;99.90;;;;;;5027600;28;20546;-78
2023/04/30 10:41:30;;;;;;;1999.90;999.90;;;19.00;99.90;;;;;;5027991;28;20415;-78
2023/04/30 10:44:19;;;;;;;1999.90;999.90;;;19.40;96.30;;;;;;5029535;28;20427;-78
2023/04/30 10:47:20;;;;;;;1999.90;999.90;;;19.70;98.50;;;;;;5027958;28;20989;-78
2023/04/30 10:53:21;;;;;;;1999.90;999.90;;;19.60;98.20;;;;;;4984736;28;20472;-78
2023/04/30 10:59:51;;;;;;;1999.90;999.90;;;20.30;87.60;;;;;;5019624;28;20438;-78
2023/04/30 11:02:49;;;;;;;1999.90;999.90;;;20.50;90.80;;;;;;5009788;28;20427;-78
2023/04/30 11:05:39;;;;;;;1999.90;999.90;;;20.60;78.30;;;;;;5030575;28;21276;-78
2023/04/30 11:08:12;;;;;;;1999.90;999.90;;;20.90;80.90;;;;;;5029495;28;20422;-78
2023/04/30 11:10:40;;;;;;;1999.90;999.90;;;;;;;;;;5029240;28;20963;-78
2023/04/30 11:13:50;;;;;;;1999.90;999.90;;;21.10;88.90;;;;;;5030573;28;20519;-78
2023/04/30 11:23:54;;;;;;;1999.90;999.90;;;21.00;84.50;;;;;;5028139;28;20414;-78
2023/04/30 11:27:21;;;;;;;1999.90;999.90;;;21.20;71.10;;;;;;4950712;29;20433;-78
2023/04/30 11:38:17;;;;;;;;;;;;;;;;;;;;;
2023/04/30 11:45:03;;;;;;;1999.90;999.90;;;22.50;62.50;;;;;;4826940;29;20445;-77
2023/04/30 11:51:58;;;;;;;1999.90;999.90;;;22.40;53.60;;;;;;4817470;29;20489;-78
2023/04/30 12:15:25;;;;;;;1999.90;999.90;;;26.40;29.70;;;;;;4801443;29;20436;-77
2023/04/30 12:17:52;;;;;;;1999.90;999.90;;;26.50;26.40;;;;;;4936612;28;20444;-78
2023/04/30 12:20:20;;;;;;;1999.90;999.90;;;26.20;23.00;;;;;;5001633;28;20433;-76
2023/04/30 12:22:47;;;;;;;1999.90;999.90;;;23.90;31.30;;;;;;5039357;28;20409;-76
2023/04/30 12:25:17;;;;;;;1999.90;999.90;;;24.00;24.40;;;;;;5024461;28;20426;-77
2023/04/30 12:27:50;;;;;;;1999.90;999.90;;;23.60;28.70;;;;;;5042480;28;20456;-77
2023/04/30 12:30:20;;;;;;;1999.90;999.90;;;23.50;32.80;;;;;;5042341;28;20921;-76
2023/04/30 12:32:48;;;;;;;1999.90;999.90;;;23.80;34.20;;;;;;5043398;28;20461;-77
2023/04/30 12:35:16;;;;;;;1999.90;999.90;;;23.70;26.60;;;;;;5041988;28;20392;-77
2023/04/30 12:37:52;;;;;;;1999.90;999.90;;;23.90;27.90;;;;;;5023519;28;20458;-77
2023/04/30 12:40:20;;;;;;;1999.90;999.90;;;24.10;26.00;;;;;;5042708;28;20405;-76
2023/04/30 12:42:46;;;;;;;1999.90;999.90;;;24.00;23.60;;;;;;5038806;28;20413;-77
2023/04/30 12:45:13;;;;;;;1999.90;999.90;;;24.60;26.80;;;;;;5020864;28;20394;-77
2023/04/30 12:47:40;;;;;;;1999.90;999.90;;;25.30;26.40;;;;;;5039024;28;20506;-77
2023/04/30 12:50:11;;;;;;;1999.90;999.90;;;26.40;25.10;;;;;;5026345;28;20519;-78
2023/04/30 12:52:39;;;;;;;1999.90;999.90;;;27.50;22.10;;;;;;5019722;28;20726;-77
2023/04/30 12:55:14;;;;;;;1999.90;999.90;;;28.10;19.20;;;;;;5037967;28;20505;-75
2023/04/30 12:57:40;;;;;;;1999.90;999.90;;;29.00;17.00;;;;;;5036740;28;20406;-75
2023/04/30 13:00:07;;;;;;;1999.90;999.90;;;29.70;14.20;;;;;;5039456;28;20411;-75
2023/04/30 13:02:32;;;;;;;1999.90;999.90;;;29.60;12.40;;;;;;5021423;28;20247;-77
2023/04/30 13:04:58;;;;;;;1999.90;999.90;;;29.10;10.00;;;;;;5036907;28;20461;-77
2023/04/30 13:07:24;;;;;;;1999.90;999.90;;;28.60;11.40;;;;;;5024019;28;20529;-76
2023/04/30 13:09:51;;;;;;;1999.90;999.90;;;28.40;9.30;;;;;;5041083;28;20199;-76
2023/04/30 13:12:17;;;;;;;1999.90;999.90;;;28.50;9.40;;;;;;5020584;28;20943;-77
2023/04/30 13:14:43;;;;;;;1999.90;999.90;;;28.80;8.20;;;;;;5019693;28;20439;-77
2023/04/30 13:17:11;;;;;;;1999.90;999.90;;;29.10;8.30;;;;;;5032747;28;20411;-76
2023/04/30 13:19:36;;;;;;;1999.90;999.90;;;29.90;7.10;;;;;;5030217;28;20188;-76
2023/04/30 13:22:02;;;;;;;1999.90;999.90;;;30.30;5.10;;;;;;5029669;28;20419;-75
2023/04/30 13:24:29;;;;;;;1999.90;999.90;;;31.30;4.60;;;;;;5029471;28;20195;-75
2023/04/30 13:26:58;;;;;;;1999.90;999.90;;;31.90;3.30;;;;;;5031424;28;20552;-75
2023/04/30 13:29:23;;;;;;;1999.90;999.90;;;32.40;2.00;;;;;;5032492;28;20481;-76
2023/04/30 13:31:49;;;;;;;1999.90;999.90;;;32.90;1.00;;;;;;5031231;28;20508;-75
2023/04/30 13:36:52;;;;;;;1999.90;999.90;;;31.90;1.00;;;;;;5432829;22;20683;-75
2023/04/30 13:39:18;;;;;;;1999.90;999.90;;;30.70;1.00;;;;;;5010301;28;20475;-74
2023/04/30 13:41:44;;;;;;;1999.90;999.90;;;29.80;1.00;;;;;;5009042;28;20424;-76
2023/04/30 13:44:10;;;;;;;1999.90;999.90;;;28.60;1.00;;;;;;5008754;28;20498;-74
2023/04/30 13:46:35;;;;;;;1999.90;999.90;;;27.70;1.00;;;;;;5009561;28;20411;-74
2023/04/30 13:49:01;;;;;;;1999.90;999.90;;;27.10;2.50;;;;;;5008985;28;20207;-75
2023/04/30 13:51:27;;;;;;;1999.90;999.90;;;26.70;4.40;;;;;;5008529;28;20184;-73
2023/04/30 13:53:53;;;;;;;1999.90;999.90;;;26.40;3.70;;;;;;5008554;28;20673;-75
2023/04/30 13:56:18;;;;;;;1999.90;999.90;;;25.80;4.30;;;;;;5008341;28;20422;-74
2023/04/30 13:58:45;;;;;;;1999.90;999.90;;;25.10;5.20;;;;;;5008708;28;20189;-74
2023/04/30 14:01:10;;;;;;;1999.90;999.90;;;24.60;8.10;;;;;;5010641;28;20401;-74
2023/04/30 14:03:36;;;;;;;1999.90;999.90;;;25.10;6.70;;;;;;5012873;28;20515;-76
2023/04/30 14:06:01;;;;;;;1999.90;999.90;;;25.10;8.20;;;;;;5010208;28;20560;-76
2023/04/30 14:08:27;;;;;;;1999.90;999.90;;;25.50;9.80;;;;;;5013995;28;20275;-75
2023/04/30 14:10:53;;;;;;;1999.90;999.90;;;25.50;10.00;;;;;;5010298;28;20165;-72
2023/04/30 14:13:19;;;;;;;1999.90;999.90;;;25.50;6.90;;;;;;5008461;28;20181;-76
2023/04/30 14:15:46;;;;;;;1999.90;999.90;;;25.20;6.10;;;;;;4991960;28;20391;-75
2023/04/30 14:18:12;;;;;;;1999.90;999.90;;;25.00;6.70;;;;;;5009954;28;20912;-75